createdAt,value
2022-11-01T00:01:50.733Z,9.80
2022-11-01T00:04:18.706Z,9.80
2022-11-01T00:06:48.126Z,9.80
2022-11-01T00:09:16.111Z,9.80
2022-11-01T00:11:43.946Z,9.70
2022-11-01T00:14:13.143Z,9.70
2022-11-01T00:16:42.765Z,9.70
2022-11-01T00:19:10.661Z,9.70
2022-11-01T00:21:38.554Z,9.70
2022-11-01T00:24:06.681Z,9.70
2022-11-01T00:26:34.629Z,9.80
2022-11-01T00:29:02.562Z,9.80
2022-11-01T00:31:31.971Z,9.80
2022-11-01T00:34:03.772Z,9.80
2022-11-01T00:36:31.701Z,9.70
2022-11-01T00:38:59.547Z,9.70
2022-11-01T00:41:27.339Z,9.70
2022-11-01T00:43:55.144Z,9.70
2022-11-01T00:46:22.959Z,9.70
2022-11-01T00:48:50.795Z,9.70
2022-11-01T00:51:19.961Z,9.70
2022-11-01T00:53:47.746Z,9.70
2022-11-01T00:56:15.552Z,9.70
2022-11-01T00:58:43.301Z,9.70
2022-11-01T01:01:11.205Z,9.70
2022-11-01T01:03:39.103Z,9.70
2022-11-01T01:06:07.045Z,9.70
2022-11-01T01:08:36.251Z,9.70
2022-11-01T01:11:04.034Z,9.70
2022-11-01T01:13:31.873Z,9.60
2022-11-01T01:15:59.656Z,9.60
2022-11-01T01:18:28.040Z,9.60
2022-11-01T01:21:00.901Z,9.60
2022-11-01T01:23:28.693Z,9.60
2022-11-01T01:25:57.845Z,9.60
2022-11-01T01:28:25.641Z,9.60
2022-11-01T01:30:53.441Z,9.60
2022-11-01T01:33:21.264Z,9.60
2022-11-01T01:35:49.045Z,9.60
2022-11-01T01:38:16.886Z,9.60
2022-11-01T01:40:44.721Z,9.60
2022-11-01T01:43:13.954Z,9.60
2022-11-01T01:45:42.348Z,9.50
2022-11-01T01:48:12.186Z,9.50
2022-11-01T01:50:41.552Z,9.50
2022-11-01T01:53:11.133Z,9.50
2022-11-01T01:55:40.279Z,9.40
2022-11-01T01:58:10.146Z,9.50
2022-11-01T02:00:39.492Z,9.50
2022-11-01T02:03:23.139Z,9.50
2022-11-01T02:05:53.067Z,9.40
2022-11-01T02:08:27.738Z,9.50
2022-11-01T02:10:57.213Z,9.40
2022-11-01T02:13:25.230Z,9.40
2022-11-01T02:16:10.914Z,9.40
2022-11-01T02:18:42.986Z,9.40
2022-11-01T02:21:22.322Z,9.40
2022-11-01T02:24:13.849Z,9.40
2022-11-01T02:26:59.174Z,9.40
2022-11-01T02:29:38.785Z,9.40
2022-11-01T02:32:13.608Z,9.40
2022-11-01T02:34:43.610Z,9.40
2022-11-01T02:37:14.714Z,9.30
2022-11-01T02:39:46.273Z,9.40
2022-11-01T02:42:16.149Z,9.30
2022-11-01T02:44:47.906Z,9.30
2022-11-01T02:47:17.427Z,9.30
2022-11-01T02:49:46.586Z,9.30
2022-11-01T02:52:16.037Z,9.40
2022-11-01T02:54:44.940Z,9.30
2022-11-01T02:57:26.716Z,9.40
2022-11-01T03:00:01.729Z,9.30
2022-11-01T03:02:40.380Z,9.30
2022-11-01T03:05:10.061Z,9.20
2022-11-01T03:07:37.977Z,9.30
2022-11-01T03:10:06.176Z,9.20
2022-11-01T03:12:34.563Z,9.20
2022-11-01T03:15:04.662Z,9.20
2022-11-01T03:17:34.984Z,9.20
2022-11-01T03:20:07.173Z,9.20
2022-11-01T03:22:37.503Z,9.20
2022-11-01T03:25:29.473Z,9.20
2022-11-01T03:27:57.590Z,9.10
2022-11-01T03:30:25.427Z,9.10
2022-11-01T03:32:56.187Z,9.10
2022-11-01T03:35:25.566Z,9.20
2022-11-01T03:37:55.279Z,9.10
2022-11-01T03:40:24.295Z,9.10
2022-11-01T03:42:53.353Z,9.10
2022-11-01T03:47:51.938Z,9.10
2022-11-01T03:50:22.248Z,9.00
2022-11-01T03:52:50.059Z,9.00
2022-11-01T03:55:19.268Z,9.00
2022-11-01T03:57:47.338Z,8.90
2022-11-01T04:00:16.326Z,8.90
2022-11-01T04:02:44.305Z,8.90
2022-11-01T04:05:12.343Z,8.90
2022-11-01T04:07:41.594Z,8.90
2022-11-01T04:10:09.797Z,8.90
2022-11-01T04:12:37.766Z,8.90
2022-11-01T04:15:23.586Z,8.90
2022-11-01T04:18:19.306Z,8.80
2022-11-01T04:20:47.086Z,8.90
2022-11-01T04:23:16.721Z,8.80
2022-11-01T04:25:45.442Z,8.80
2022-11-01T04:28:13.218Z,8.80
2022-11-01T04:30:41.022Z,8.80
2022-11-01T04:33:08.810Z,8.80
2022-11-01T04:35:37.062Z,8.80
2022-11-01T04:38:05.786Z,8.80
2022-11-01T04:40:35.383Z,8.80
2022-11-01T04:43:03.225Z,8.80
2022-11-01T04:45:31.091Z,8.80
2022-11-01T04:48:02.851Z,8.80
2022-11-01T04:50:30.960Z,8.80
2022-11-01T04:52:59.309Z,8.80
2022-11-01T04:55:27.272Z,8.80
2022-11-01T04:57:56.626Z,8.80
2022-11-01T05:00:24.647Z,8.80
2022-11-01T05:02:52.474Z,8.80
2022-11-01T05:05:20.640Z,8.80
2022-11-01T05:07:48.505Z,8.80
2022-11-01T05:10:16.406Z,8.80
2022-11-01T05:12:44.214Z,8.80
2022-11-01T05:15:13.390Z,8.70
2022-11-01T05:17:42.138Z,8.70
2022-11-01T05:20:10.866Z,8.70
2022-11-01T05:22:38.658Z,8.80
2022-11-01T05:25:09.280Z,8.70
2022-11-01T05:27:37.463Z,8.70
2022-11-01T05:30:06.090Z,8.80
2022-11-01T05:32:35.544Z,8.70
2022-11-01T05:35:04.534Z,8.80
2022-11-01T05:37:32.294Z,8.80
2022-11-01T05:40:00.183Z,8.80
2022-11-01T05:42:27.996Z,8.80
2022-11-01T05:44:55.761Z,8.80
2022-11-01T05:47:23.514Z,8.80
2022-11-01T05:49:52.658Z,8.80
2022-11-01T05:52:20.463Z,8.80
2022-11-01T05:54:48.237Z,8.80
2022-11-01T05:57:16.047Z,8.80
2022-11-01T05:59:43.855Z,8.80
2022-11-01T06:02:11.772Z,8.80
2022-11-01T06:04:39.597Z,8.80
2022-11-01T06:07:08.719Z,8.80
2022-11-01T06:09:36.498Z,8.80
2022-11-01T06:12:04.511Z,8.80
2022-11-01T06:14:32.375Z,8.80
2022-11-01T06:17:00.190Z,8.90
2022-11-01T06:19:27.977Z,8.80
2022-11-01T06:21:56.156Z,8.90
2022-11-01T06:24:25.290Z,8.90
2022-11-01T06:26:53.083Z,8.90
2022-11-01T06:29:20.866Z,8.90
2022-11-01T06:31:48.674Z,8.90
2022-11-01T06:34:16.629Z,8.90
2022-11-01T06:36:44.405Z,8.90
2022-11-01T06:39:12.554Z,8.90
2022-11-01T06:41:41.706Z,8.80
2022-11-01T06:44:09.470Z,8.80
2022-11-01T06:46:37.269Z,8.80
2022-11-01T06:49:05.065Z,8.90
2022-11-01T06:51:32.888Z,8.90
2022-11-01T06:54:00.763Z,8.90
2022-11-01T06:56:28.561Z,8.90
2022-11-01T06:58:57.687Z,8.90
2022-11-01T07:01:25.813Z,9.00
2022-11-01T07:03:53.731Z,9.00
2022-11-01T07:06:21.932Z,9.10
2022-11-01T07:08:49.718Z,9.10
2022-11-01T07:11:17.606Z,9.20
2022-11-01T07:13:45.416Z,9.20
2022-11-01T07:16:14.594Z,9.30
2022-11-01T07:18:43.166Z,9.30
2022-11-01T07:21:11.076Z,9.40
2022-11-01T07:23:38.964Z,9.40
2022-11-01T07:26:06.778Z,9.50
2022-11-01T07:28:35.094Z,9.50
2022-11-01T07:31:03.178Z,9.60
2022-11-01T07:33:32.439Z,9.70
2022-11-01T07:36:01.391Z,9.70
2022-11-01T07:38:29.240Z,9.70
2022-11-01T07:40:57.043Z,9.70
2022-11-01T07:43:24.813Z,9.70
2022-11-01T07:45:52.587Z,9.70
2022-11-01T07:48:20.496Z,9.80
2022-11-01T07:50:49.661Z,9.80
2022-11-01T07:53:18.604Z,9.80
2022-11-01T07:55:46.744Z,9.90
2022-11-01T07:58:15.047Z,9.90
2022-11-01T08:00:43.883Z,9.90
2022-11-01T08:03:13.821Z,9.90
2022-11-01T08:05:41.909Z,9.90
2022-11-01T08:08:11.717Z,9.90
2022-11-01T08:10:40.081Z,10.00
2022-11-01T08:13:08.921Z,10.00
2022-11-01T08:15:36.731Z,10.10
2022-11-01T08:18:04.974Z,10.20
2022-11-01T08:20:33.071Z,10.30
2022-11-01T08:23:01.160Z,10.40
2022-11-01T08:25:30.599Z,10.50
2022-11-01T08:28:01.784Z,10.50
2022-11-01T08:30:29.602Z,10.60
2022-11-01T08:33:00.803Z,10.70
2022-11-01T08:35:29.504Z,10.60
2022-11-01T08:37:58.997Z,10.70
2022-11-01T08:40:28.190Z,10.80
2022-11-01T08:42:57.446Z,10.80
2022-11-01T08:45:25.356Z,11.00
2022-11-01T08:47:57.460Z,11.20
2022-11-01T08:50:25.354Z,11.20
2022-11-01T08:52:53.159Z,11.40
2022-11-01T08:55:21.476Z,11.50
2022-11-01T08:57:49.433Z,11.60
2022-11-01T09:00:19.161Z,11.70
2022-11-01T09:02:46.985Z,11.80
2022-11-01T09:05:14.902Z,11.80
2022-11-01T09:07:43.530Z,11.90
2022-11-01T09:10:11.814Z,12.20
2022-11-01T09:15:08.517Z,12.70
2022-11-01T09:17:37.694Z,12.70
2022-11-01T09:20:05.862Z,12.90
2022-11-01T09:22:33.657Z,13.00
2022-11-01T09:25:01.469Z,13.20
2022-11-01T09:27:29.272Z,13.30
2022-11-01T09:29:57.108Z,13.50
2022-11-01T09:32:25.132Z,13.40
2022-11-01T09:34:54.265Z,13.50
2022-11-01T09:37:22.088Z,13.60
2022-11-01T09:39:49.882Z,13.60
2022-11-01T09:42:21.737Z,13.60
2022-11-01T09:44:51.319Z,13.60
2022-11-01T09:47:20.879Z,13.80
2022-11-01T09:49:51.072Z,14.00
2022-11-01T09:52:21.283Z,14.30
2022-11-01T09:54:49.506Z,14.40
2022-11-01T09:57:20.483Z,14.50
2022-11-01T09:59:54.018Z,14.50
2022-11-01T10:02:34.072Z,14.70
2022-11-01T10:05:07.856Z,15.00
2022-11-01T10:07:42.744Z,15.40
2022-11-01T10:10:18.344Z,15.70
2022-11-01T10:12:51.870Z,15.90
2022-11-01T10:15:25.901Z,16.20
2022-11-01T10:17:54.665Z,16.50
2022-11-01T10:20:23.944Z,16.60
2022-11-01T10:22:53.147Z,16.90
2022-11-01T10:25:22.545Z,17.20
2022-11-01T10:28:04.408Z,17.30
2022-11-01T10:30:36.469Z,17.20
2022-11-01T10:33:07.614Z,17.10
2022-11-01T10:35:37.781Z,17.10
2022-11-01T10:38:25.036Z,17.00
2022-11-01T10:40:57.390Z,17.00
2022-11-01T10:43:26.568Z,17.00
2022-11-01T10:45:56.866Z,17.20
2022-11-01T10:48:28.860Z,17.60
2022-11-01T10:50:59.964Z,17.90
2022-11-01T10:53:30.388Z,18.20
2022-11-01T10:56:01.682Z,19.10
2022-11-01T10:58:33.997Z,19.80
2022-11-01T11:01:02.362Z,20.30
2022-11-01T11:03:31.509Z,20.50
2022-11-01T11:06:01.219Z,20.10
2022-11-01T11:08:30.406Z,19.50
2022-11-01T11:11:02.303Z,18.90
2022-11-01T11:13:30.406Z,18.60
2022-11-01T11:16:00.490Z,18.10
2022-11-01T11:18:30.209Z,17.90
2022-11-01T11:21:00.141Z,17.60
2022-11-01T11:23:33.029Z,17.70
2022-11-01T11:26:04.441Z,17.60
2022-11-01T11:28:33.386Z,17.60
2022-11-01T11:31:13.376Z,17.90
2022-11-01T11:33:47.671Z,18.50
2022-11-01T11:36:15.733Z,19.60
2022-11-01T11:38:46.205Z,21.20
2022-11-01T11:41:14.547Z,22.60
2022-11-01T11:43:42.657Z,23.60
2022-11-01T11:46:15.040Z,24.20
2022-11-01T11:48:47.655Z,25.00
2022-11-01T11:51:15.842Z,25.50
2022-11-01T11:53:45.494Z,26.30
2022-11-01T11:56:13.447Z,26.90
2022-11-01T11:58:42.788Z,26.70
2022-11-01T12:01:11.865Z,27.20
2022-11-01T12:03:46.099Z,27.00
2022-11-01T12:06:15.127Z,27.40
2022-11-01T12:08:48.467Z,28.20
2022-11-01T12:11:16.606Z,28.50
2022-11-01T12:13:45.454Z,28.80
2022-11-01T12:16:19.141Z,28.80
2022-11-01T12:18:48.536Z,29.00
2022-11-01T12:21:18.615Z,28.90
2022-11-01T12:23:49.164Z,28.60
2022-11-01T12:26:17.606Z,28.50
2022-11-01T12:28:48.173Z,28.60
2022-11-01T12:31:17.781Z,28.60
2022-11-01T12:33:48.298Z,28.20
2022-11-01T12:36:16.199Z,27.70
2022-11-01T12:38:47.170Z,27.40
2022-11-01T12:41:24.511Z,27.10
2022-11-01T12:44:00.762Z,26.80
2022-11-01T12:46:32.228Z,26.10
2022-11-01T12:49:03.578Z,25.50
2022-11-01T12:51:33.907Z,24.70
2022-11-01T12:54:06.353Z,24.00
2022-11-01T12:56:35.525Z,23.70
2022-11-01T12:59:04.514Z,23.20
2022-11-01T13:01:36.339Z,22.90
2022-11-01T13:04:13.899Z,22.50
2022-11-01T13:06:54.002Z,22.20
2022-11-01T13:09:25.908Z,22.40
2022-11-01T13:11:58.979Z,23.50
2022-11-01T13:14:42.959Z,24.80
2022-11-01T13:17:13.418Z,25.70
2022-11-01T13:19:43.405Z,26.20
2022-11-01T13:22:15.337Z,26.40
2022-11-01T13:24:47.069Z,26.70
2022-11-01T13:27:18.027Z,26.50
2022-11-01T13:29:52.871Z,26.40
2022-11-01T13:32:22.834Z,26.70
2022-11-01T13:34:55.533Z,27.00
2022-11-01T13:37:28.785Z,27.00
2022-11-01T13:40:05.875Z,26.80
2022-11-01T13:42:37.949Z,26.20
2022-11-01T13:45:18.950Z,25.60
2022-11-01T13:47:49.135Z,24.60
2022-11-01T13:50:24.895Z,23.80
2022-11-01T13:52:55.686Z,23.00
2022-11-01T13:55:28.104Z,22.20
2022-11-01T13:57:57.347Z,21.50
2022-11-01T14:00:39.375Z,20.90
2022-11-01T14:03:24.780Z,20.50
2022-11-01T14:06:11.549Z,20.00
2022-11-01T14:08:39.943Z,19.60
2022-11-01T14:11:08.343Z,19.30
2022-11-01T14:13:40.076Z,19.00
2022-11-01T14:16:22.756Z,18.80
2022-11-01T14:19:13.697Z,18.60
2022-11-01T14:21:45.310Z,18.40
2022-11-01T14:24:30.726Z,18.20
2022-11-01T14:27:19.227Z,18.10
2022-11-01T14:29:50.965Z,17.90
2022-11-01T14:32:19.782Z,17.80
2022-11-01T14:34:56.414Z,17.70
2022-11-01T14:37:25.901Z,17.50
2022-11-01T14:39:59.813Z,17.40
2022-11-01T14:42:31.302Z,17.30
2022-11-01T14:45:02.148Z,17.20
2022-11-01T14:47:35.492Z,17.00
2022-11-01T14:50:06.022Z,17.00
2022-11-01T14:52:40.124Z,16.90
2022-11-01T14:55:13.878Z,16.80
2022-11-01T14:57:41.736Z,16.70
2022-11-01T15:00:23.510Z,16.60
2022-11-01T15:02:51.866Z,16.50
2022-11-01T15:05:19.780Z,16.30
2022-11-01T15:07:50.958Z,16.20
2022-11-01T15:10:19.047Z,16.10
2022-11-01T15:12:48.324Z,16.00
2022-11-01T15:15:17.519Z,15.90
2022-11-01T15:17:51.000Z,15.90
2022-11-01T15:20:20.099Z,15.70
2022-11-01T15:22:48.715Z,15.70
2022-11-01T15:25:21.487Z,15.60
2022-11-01T15:27:50.130Z,15.50
2022-11-01T15:30:22.317Z,15.40
2022-11-01T15:32:54.027Z,15.30
2022-11-01T15:35:23.175Z,15.20
2022-11-01T15:37:53.161Z,15.10
2022-11-01T15:40:28.869Z,15.00
2022-11-01T15:42:57.670Z,15.00
2022-11-01T15:45:28.573Z,14.90
2022-11-01T15:47:59.838Z,14.80
2022-11-01T15:50:31.142Z,14.70
2022-11-01T15:53:03.976Z,14.70
2022-11-01T15:55:33.894Z,14.60
2022-11-01T15:58:06.699Z,14.50
2022-11-01T16:00:35.762Z,14.50
2022-11-01T16:03:07.205Z,14.50
2022-11-01T16:05:36.113Z,14.40
2022-11-01T16:08:06.401Z,14.30
2022-11-01T16:10:34.602Z,14.30
2022-11-01T16:13:04.520Z,14.20
2022-11-01T16:15:33.249Z,14.20
2022-11-01T16:18:02.408Z,14.10
2022-11-01T16:20:33.928Z,14.10
2022-11-01T16:23:02.441Z,14.10
2022-11-01T16:25:31.628Z,14.10
2022-11-01T16:28:01.163Z,14.00
2022-11-01T16:30:33.290Z,14.00
2022-11-01T16:33:07.689Z,13.90
2022-11-01T16:35:37.429Z,13.90
2022-11-01T16:38:14.623Z,13.90
2022-11-01T16:40:42.430Z,13.80
2022-11-01T16:43:10.206Z,13.80
2022-11-01T16:45:38.452Z,13.80
2022-11-01T16:48:06.608Z,13.70
2022-11-01T16:50:34.455Z,13.70
2022-11-01T16:53:03.601Z,13.70
2022-11-01T16:55:33.591Z,13.60
2022-11-01T16:58:02.909Z,13.50
2022-11-01T17:00:31.532Z,13.50
2022-11-01T17:02:59.536Z,13.40
2022-11-01T17:05:27.358Z,13.40
2022-11-01T17:07:56.434Z,13.40
2022-11-01T17:10:26.561Z,13.40
2022-11-01T17:12:57.651Z,13.30
2022-11-01T17:15:26.738Z,13.30
2022-11-01T17:17:54.807Z,13.30
2022-11-01T17:20:26.618Z,13.30
2022-11-01T17:22:55.674Z,13.30
2022-11-01T17:25:26.505Z,13.20
2022-11-01T17:27:54.292Z,13.20
2022-11-01T17:30:22.128Z,13.20
2022-11-01T17:32:49.944Z,13.20
2022-11-01T17:35:20.371Z,13.20
2022-11-01T17:37:53.788Z,13.10
2022-11-01T17:40:25.043Z,13.10
2022-11-01T17:42:54.405Z,13.10
2022-11-01T17:45:22.789Z,13.10
2022-11-01T17:47:52.672Z,13.10
2022-11-01T17:50:20.607Z,13.00
2022-11-01T17:52:51.155Z,13.00
2022-11-01T17:55:18.963Z,13.00
2022-11-01T17:57:46.748Z,13.00
2022-11-01T18:00:16.915Z,13.00
2022-11-01T18:02:44.688Z,13.00
2022-11-01T18:05:13.809Z,12.90
2022-11-01T18:07:42.525Z,12.90
2022-11-01T18:10:16.590Z,12.90
2022-11-01T18:12:52.059Z,12.90
2022-11-01T18:15:25.850Z,12.90
2022-11-01T18:18:02.805Z,12.90
2022-11-01T18:20:39.955Z,12.90
2022-11-01T18:23:09.664Z,12.90
2022-11-01T18:25:39.441Z,12.80
2022-11-01T18:28:11.735Z,12.90
2022-11-01T18:30:42.138Z,12.80
2022-11-01T18:33:11.561Z,12.80
2022-11-01T18:35:40.073Z,12.80
2022-11-01T18:38:13.420Z,12.80
2022-11-01T18:40:45.256Z,12.80
2022-11-01T18:43:13.029Z,12.70
2022-11-01T18:45:58.809Z,12.70
2022-11-01T18:48:31.029Z,12.70
2022-11-01T18:51:04.824Z,12.60
2022-11-01T18:53:33.773Z,12.60
2022-11-01T18:56:14.990Z,12.60
2022-11-01T18:58:42.895Z,12.60
2022-11-01T19:01:14.579Z,12.60
2022-11-01T19:03:42.585Z,12.60
2022-11-01T19:06:14.475Z,12.60
2022-11-01T19:08:42.315Z,12.60
2022-11-01T19:11:11.961Z,12.60
2022-11-01T19:13:39.787Z,12.60
2022-11-01T19:16:12.021Z,12.60
2022-11-01T19:18:43.393Z,12.60
2022-11-01T19:21:16.091Z,12.60
2022-11-01T19:23:46.110Z,12.60
2022-11-01T19:26:23.630Z,12.60
2022-11-01T19:28:52.601Z,12.60
2022-11-01T19:31:27.957Z,12.60
2022-11-01T19:33:58.523Z,12.60
2022-11-01T19:36:31.259Z,12.50
2022-11-01T19:38:59.781Z,12.50
2022-11-01T19:41:30.417Z,12.50
2022-11-01T19:43:59.240Z,12.50
2022-11-01T19:46:27.158Z,12.50
2022-11-01T19:48:55.008Z,12.50
2022-11-01T19:51:26.709Z,12.50
2022-11-01T19:53:54.612Z,12.50
2022-11-01T19:56:23.402Z,12.50
2022-11-01T19:58:51.684Z,12.40
2022-11-01T20:01:45.415Z,12.40
2022-11-01T20:04:27.750Z,12.40
2022-11-01T20:07:00.975Z,12.40
2022-11-01T20:09:29.509Z,12.40
2022-11-01T20:11:57.338Z,12.30
2022-11-01T20:14:27.529Z,12.30
2022-11-01T20:16:55.358Z,12.40
2022-11-01T20:19:23.197Z,12.40
2022-11-01T20:21:50.988Z,12.30
2022-11-01T20:24:21.298Z,12.30
2022-11-01T20:26:49.351Z,12.30
2022-11-01T20:29:17.183Z,12.30
2022-11-01T20:31:44.985Z,12.30
2022-11-01T20:34:12.805Z,12.30
2022-11-01T20:36:40.639Z,12.30
2022-11-01T20:39:10.476Z,12.30
2022-11-01T20:41:42.296Z,12.30
2022-11-01T20:44:10.123Z,12.30
2022-11-01T20:46:37.929Z,12.20
2022-11-01T20:49:05.695Z,12.20
2022-11-01T20:51:33.512Z,12.20
2022-11-01T20:54:01.304Z,12.20
2022-11-01T20:56:29.113Z,12.20
2022-11-01T20:58:58.407Z,12.20
2022-11-01T21:01:26.340Z,12.20
2022-11-01T21:03:55.213Z,12.20
2022-11-01T21:06:23.270Z,12.10
2022-11-01T21:08:51.023Z,12.10
2022-11-01T21:11:22.277Z,12.10
2022-11-01T21:13:51.736Z,12.10
2022-11-01T21:16:25.259Z,12.00
2022-11-01T21:18:54.502Z,12.00
2022-11-01T21:21:28.708Z,12.00
2022-11-01T21:23:57.306Z,12.00
2022-11-01T21:26:27.584Z,12.00
2022-11-01T21:28:56.207Z,12.00
2022-11-01T21:31:29.508Z,11.90
2022-11-01T21:33:58.746Z,11.90
2022-11-01T21:36:32.296Z,11.90
2022-11-01T21:39:00.773Z,11.90
2022-11-01T21:41:35.895Z,11.80
2022-11-01T21:44:14.329Z,11.80
2022-11-01T21:46:44.509Z,11.80
2022-11-01T21:49:21.173Z,11.70
2022-11-01T21:51:49.048Z,11.70
2022-11-01T21:54:16.858Z,11.60
2022-11-01T21:56:44.610Z,11.60
2022-11-01T21:59:12.428Z,11.50
2022-11-01T22:01:40.797Z,11.60
2022-11-01T22:04:10.080Z,11.50
2022-11-01T22:06:37.844Z,11.50
2022-11-01T22:09:05.853Z,11.50
2022-11-01T22:11:33.678Z,11.50
2022-11-01T22:14:01.499Z,11.40
2022-11-01T22:16:29.280Z,11.40
2022-11-01T22:18:57.259Z,11.40
2022-11-01T22:21:26.467Z,11.30
2022-11-01T22:23:54.273Z,11.30
2022-11-01T22:26:23.026Z,11.30
2022-11-01T22:28:50.958Z,11.20
2022-11-01T22:31:19.343Z,11.10
2022-11-01T22:33:49.620Z,11.10
2022-11-01T22:36:22.201Z,11.00
2022-11-01T22:38:51.463Z,11.00
2022-11-01T22:41:25.905Z,11.00
2022-11-01T22:43:57.138Z,10.90
2022-11-01T22:46:26.593Z,10.90
2022-11-01T22:48:59.080Z,10.90
2022-11-01T22:51:32.492Z,10.90
2022-11-01T22:54:01.609Z,10.90
2022-11-01T22:56:29.587Z,10.90
2022-11-01T22:58:57.525Z,10.90
2022-11-01T23:01:29.040Z,10.90
2022-11-01T23:03:59.057Z,11.00
2022-11-01T23:06:31.171Z,11.00
2022-11-01T23:09:05.551Z,11.00
2022-11-01T23:11:50.697Z,11.00
2022-11-01T23:14:40.283Z,11.00
2022-11-01T23:17:19.805Z,11.00
2022-11-01T23:19:47.853Z,11.00
2022-11-01T23:22:16.491Z,11.00
2022-11-01T23:24:45.762Z,11.00
2022-11-01T23:27:13.608Z,11.00
2022-11-01T23:29:42.083Z,11.00
2022-11-01T23:32:10.003Z,11.00
2022-11-01T23:34:37.826Z,11.00
2022-11-01T23:37:06.914Z,11.00
2022-11-01T23:39:35.076Z,11.00
2022-11-01T23:42:04.311Z,11.00
2022-11-01T23:44:34.630Z,11.00
2022-11-01T23:47:05.326Z,11.00
2022-11-01T23:49:33.921Z,11.00
2022-11-01T23:52:01.805Z,11.00
2022-11-01T23:54:34.370Z,11.00
2022-11-01T23:57:02.240Z,11.00
2022-11-01T23:59:31.716Z,11.00
